Duty — WDD5291 — position and weather

sailwx.info

Track history (hours):
 
Tides and Currents Weather Stations Pressure Air Temp Water Temp Dewpoint Dewpoint Depression Visibility Wind Speed Wind Dir Waves Ship Positions

Duty

Owner: Express Marine Inc., Camden, NJ. More information available from US FCC via Universal Licensing System and Coast Guard Vessel Documentation Center.

Last reported at 2018-Apr-19 13:27 UTC. Time now 2018-Apr-20 07:08 UTC.
Position N 27°04' W 080°05'.

Length 33 m; draft 5 m.

Type: Tug. MMSI: 367082000.

Date/timePositionNaut miles runAvg speedWind from/ knotsBaromVisibWave heightAir tempDewpointWater temp
2018-Apr-19 13:27N 27°04' W 080°05'4 8.9
2018-Apr-19 12:59N 27°00' W 080°04'3 7.3
2018-Apr-19 12:30N 26°57' W 080°02'4 7.2
2018-Apr-19 12:00N 26°54' W 080°01'25 9.7
2018-Apr-19 09:28N 26°29' W 080°02'4 9.1
2018-Apr-19 09:00N 26°25' W 080°03'4 8.7
2018-Apr-19 08:30N 26°21' W 080°03'4 8.6
2018-Apr-19 08:00N 26°16' W 080°04'5 8.9
2018-Apr-19 07:30N 26°12' W 080°04'5 9.3
2018-Apr-19 07:00N 26°07' W 080°04'3 6.3
2018-Apr-19 06:30N 26°05' W 080°07'0 0.6
2018-Apr-19 06:00N 26°05' W 080°07'0 0.0
2018-Apr-19 05:30N 26°05' W 080°07'0 0.0
2018-Apr-19 05:00N 26°05' W 080°07'0 0.0
2018-Apr-19 04:30N 26°05' W 080°07'0 0.0
2018-Apr-19 03:57N 26°05' W 080°07'0 0.0
2018-Apr-19 03:30N 26°05' W 080°07'0 0.0
2018-Apr-19 03:00N 26°05' W 080°07'0 0.0
2018-Apr-19 02:30N 26°05' W 080°07'0 0.0
2018-Apr-19 02:00N 26°05' W 080°07'0 0.0
2018-Apr-19 01:30N 26°05' W 080°07'0 0.0
2018-Apr-19 01:00N 26°05' W 080°07'0 0.0
2018-Apr-19 00:30N 26°05' W 080°07'0 0.0
2018-Apr-19 00:00N 26°05' W 080°07'0 0.0
2018-Apr-18 23:30N 26°05' W 080°07'0 0.0
2018-Apr-18 23:00N 26°05' W 080°07'0 0.0
2018-Apr-18 22:30N 26°05' W 080°07'0 0.0
2018-Apr-18 22:00N 26°05' W 080°07'0 0.0
2018-Apr-18 21:30N 26°05' W 080°07'0 0.0
2018-Apr-18 21:00N 26°05' W 080°07'0 0.0
2018-Apr-18 20:30N 26°05' W 080°07'0 0.0
2018-Apr-18 20:00N 26°05' W 080°07'0 0.0
2018-Apr-18 19:30N 26°05' W 080°07'0 0.0
2018-Apr-18 19:00N 26°05' W 080°07'0 0.0
2018-Apr-18 18:30N 26°05' W 080°07'0 0.0
2018-Apr-18 18:00N 26°05' W 080°07'0 0.0
2018-Apr-18 17:30N 26°05' W 080°07'0 0.0
2018-Apr-18 17:00N 26°05' W 080°07'0 0.0
2018-Apr-18 16:30N 26°05' W 080°07'0 0.0
2018-Apr-18 16:00N 26°05' W 080°07'0 0.0
2018-Apr-18 15:30N 26°05' W 080°07'0 0.0
2018-Apr-18 15:00N 26°05' W 080°07'0 0.0
2018-Apr-18 14:30N 26°05' W 080°07'0 0.0
2018-Apr-18 14:00N 26°05' W 080°07'0 0.0
2018-Apr-18 13:30N 26°05' W 080°07'0 0.0
2018-Apr-18 13:00N 26°05' W 080°07'0 0.0
2018-Apr-18 12:30N 26°05' W 080°07'0 0.0
2018-Apr-18 11:57N 26°05' W 080°07'0 0.0
2018-Apr-18 11:30N 26°05' W 080°07'0 0.0
2018-Apr-18 11:00N 26°05' W 080°07'0 0.0
2018-Apr-18 10:30N 26°05' W 080°07'0 0.0
2018-Apr-18 10:00N 26°05' W 080°07'0 0.0
2018-Apr-18 09:30N 26°05' W 080°07'0 0.0
2018-Apr-18 09:00N 26°05' W 080°07'0 0.0
2018-Apr-18 08:30N 26°05' W 080°07'0 0.0
2018-Apr-18 08:00N 26°05' W 080°07'0 0.0
2018-Apr-18 07:30N 26°05' W 080°07'0 0.0
2018-Apr-18 07:00N 26°05' W 080°07'0 0.0
2018-Apr-18 06:30N 26°05' W 080°07'0 0.0
2018-Apr-18 06:00N 26°05' W 080°07'0 0.3
2018-Apr-18 05:30N 26°05' W 080°07'1 1.7
2018-Apr-18 05:00N 26°06' W 080°06'2 3.7
2018-Apr-18 04:25N 26°07' W 080°04'0 0.6
2018-Apr-18 03:58N 26°07' W 080°05'0 0.1
2018-Apr-18 03:28N 26°07' W 080°05'0 0.1
2018-Apr-18 02:58N 26°07' W 080°05'0 0.1
2018-Apr-18 02:28N 26°07' W 080°05'0 0.1
2018-Apr-18 01:58N 26°07' W 080°05'0 0.0
2018-Apr-18 01:28N 26°07' W 080°05'0 0.0
2018-Apr-18 00:58N 26°07' W 080°05'0 0.0
2018-Apr-18 00:28N 26°07' W 080°05'0 0.0
2018-Apr-17 23:58N 26°07' W 080°05'0 0.0
2018-Apr-17 23:28N 26°07' W 080°05'0 0.0
2018-Apr-17 22:58N 26°07' W 080°05'0 0.0
2018-Apr-17 22:28N 26°07' W 080°05'0 0.0
2018-Apr-17 21:58N 26°07' W 080°05'0 0.0
2018-Apr-17 21:28N 26°07' W 080°05'0 0.0
2018-Apr-17 20:58N 26°07' W 080°05'0 0.0
2018-Apr-17 20:28N 26°07' W 080°05'0 0.0
2018-Apr-17 19:55N 26°07' W 080°05'0 0.0
2018-Apr-17 19:28N 26°07' W 080°05'0 0.0
2018-Apr-17 18:49N 26°07' W 080°05'0 0.0
2018-Apr-17 18:22N 26°07' W 080°05'0 0.0
2018-Apr-17 17:52N 26°07' W 080°05'0 0.0
2018-Apr-17 17:28N 26°07' W 080°05'1 1.2
2018-Apr-17 17:00N 26°07' W 080°05'4 8.8
2018-Apr-17 16:30N 26°12' W 080°04'4 8.8
2018-Apr-17 16:00N 26°16' W 080°04'4 8.4
2018-Apr-17 15:30N 26°20' W 080°03'4 7.9
2018-Apr-17 15:00N 26°24' W 080°03'4 7.9
2018-Apr-17 14:30N 26°28' W 080°02'20 7.1
2018-Apr-17 11:37N 26°48' W 079°60'1 7.0
2018-Apr-17 11:27N 26°50' W 080°00'3 7.4
2018-Apr-17 11:00N 26°53' W 080°01'4 7.7
2018-Apr-17 10:30N 26°57' W 080°02'4 7.9
2018-Apr-17 10:00N 27°00' W 080°03'  
Track history (hours):
 
Tides and Currents Weather Stations Pressure Air Temp Water Temp Dewpoint Dewpoint Depression Visibility Wind Speed Wind Dir Waves Ship Positions

Duty

Owner: Express Marine Inc., Camden, NJ. More information available from US FCC via Universal Licensing System and Coast Guard Vessel Documentation Center.

Last reported at 2018-Apr-19 13:27 UTC. Time now 2018-Apr-20 07:08 UTC.
Position N 27°04' W 080°05'.

Length 33 m; draft 5 m.

Type: Tug. MMSI: 367082000.

Date/timePositionNaut miles runAvg speedWind from/ knotsBaromVisibWave heightAir tempDewpointWater temp
2018-Apr-19 13:27N 27°04' W 080°05'4 8.9
2018-Apr-19 12:59N 27°00' W 080°04'3 7.3
2018-Apr-19 12:30N 26°57' W 080°02'4 7.2
2018-Apr-19 12:00N 26°54' W 080°01'25 9.7
2018-Apr-19 09:28N 26°29' W 080°02'4 9.1
2018-Apr-19 09:00N 26°25' W 080°03'4 8.7
2018-Apr-19 08:30N 26°21' W 080°03'4 8.6
2018-Apr-19 08:00N 26°16' W 080°04'5 8.9
2018-Apr-19 07:30N 26°12' W 080°04'5 9.3
2018-Apr-19 07:00N 26°07' W 080°04'3 6.3
2018-Apr-19 06:30N 26°05' W 080°07'0 0.6
2018-Apr-19 06:00N 26°05' W 080°07'0 0.0
2018-Apr-19 05:30N 26°05' W 080°07'0 0.0
2018-Apr-19 05:00N 26°05' W 080°07'0 0.0
2018-Apr-19 04:30N 26°05' W 080°07'0 0.0
2018-Apr-19 03:57N 26°05' W 080°07'0 0.0
2018-Apr-19 03:30N 26°05' W 080°07'0 0.0
2018-Apr-19 03:00N 26°05' W 080°07'0 0.0
2018-Apr-19 02:30N 26°05' W 080°07'0 0.0
2018-Apr-19 02:00N 26°05' W 080°07'0 0.0
2018-Apr-19 01:30N 26°05' W 080°07'0 0.0
2018-Apr-19 01:00N 26°05' W 080°07'0 0.0
2018-Apr-19 00:30N 26°05' W 080°07'0 0.0
2018-Apr-19 00:00N 26°05' W 080°07'0 0.0
2018-Apr-18 23:30N 26°05' W 080°07'0 0.0
2018-Apr-18 23:00N 26°05' W 080°07'0 0.0
2018-Apr-18 22:30N 26°05' W 080°07'0 0.0
2018-Apr-18 22:00N 26°05' W 080°07'0 0.0
2018-Apr-18 21:30N 26°05' W 080°07'0 0.0
2018-Apr-18 21:00N 26°05' W 080°07'0 0.0
2018-Apr-18 20:30N 26°05' W 080°07'0 0.0
2018-Apr-18 20:00N 26°05' W 080°07'0 0.0
2018-Apr-18 19:30N 26°05' W 080°07'0 0.0
2018-Apr-18 19:00N 26°05' W 080°07'0 0.0
2018-Apr-18 18:30N 26°05' W 080°07'0 0.0
2018-Apr-18 18:00N 26°05' W 080°07'0 0.0
2018-Apr-18 17:30N 26°05' W 080°07'0 0.0
2018-Apr-18 17:00N 26°05' W 080°07'0 0.0
2018-Apr-18 16:30N 26°05' W 080°07'0 0.0
2018-Apr-18 16:00N 26°05' W 080°07'0 0.0
2018-Apr-18 15:30N 26°05' W 080°07'0 0.0
2018-Apr-18 15:00N 26°05' W 080°07'0 0.0
2018-Apr-18 14:30N 26°05' W 080°07'0 0.0
2018-Apr-18 14:00N 26°05' W 080°07'0 0.0
2018-Apr-18 13:30N 26°05' W 080°07'0 0.0
2018-Apr-18 13:00N 26°05' W 080°07'0 0.0
2018-Apr-18 12:30N 26°05' W 080°07'0 0.0
2018-Apr-18 11:57N 26°05' W 080°07'0 0.0
2018-Apr-18 11:30N 26°05' W 080°07'0 0.0
2018-Apr-18 11:00N 26°05' W 080°07'0 0.0
2018-Apr-18 10:30N 26°05' W 080°07'0 0.0
2018-Apr-18 10:00N 26°05' W 080°07'0 0.0
2018-Apr-18 09:30N 26°05' W 080°07'0 0.0
2018-Apr-18 09:00N 26°05' W 080°07'0 0.0
2018-Apr-18 08:30N 26°05' W 080°07'0 0.0
2018-Apr-18 08:00N 26°05' W 080°07'0 0.0
2018-Apr-18 07:30N 26°05' W 080°07'0 0.0
2018-Apr-18 07:00N 26°05' W 080°07'0 0.0
2018-Apr-18 06:30N 26°05' W 080°07'0 0.0
2018-Apr-18 06:00N 26°05' W 080°07'0 0.3
2018-Apr-18 05:30N 26°05' W 080°07'1 1.7
2018-Apr-18 05:00N 26°06' W 080°06'2 3.7
2018-Apr-18 04:25N 26°07' W 080°04'0 0.6
2018-Apr-18 03:58N 26°07' W 080°05'0 0.1
2018-Apr-18 03:28N 26°07' W 080°05'0 0.1
2018-Apr-18 02:58N 26°07' W 080°05'0 0.1
2018-Apr-18 02:28N 26°07' W 080°05'0 0.1
2018-Apr-18 01:58N 26°07' W 080°05'0 0.0
2018-Apr-18 01:28N 26°07' W 080°05'0 0.0
2018-Apr-18 00:58N 26°07' W 080°05'0 0.0
2018-Apr-18 00:28N 26°07' W 080°05'0 0.0
2018-Apr-17 23:58N 26°07' W 080°05'0 0.0
2018-Apr-17 23:28N 26°07' W 080°05'0 0.0
2018-Apr-17 22:58N 26°07' W 080°05'0 0.0
2018-Apr-17 22:28N 26°07' W 080°05'0 0.0
2018-Apr-17 21:58N 26°07' W 080°05'0 0.0
2018-Apr-17 21:28N 26°07' W 080°05'0 0.0
2018-Apr-17 20:58N 26°07' W 080°05'0 0.0
2018-Apr-17 20:28N 26°07' W 080°05'0 0.0
2018-Apr-17 19:55N 26°07' W 080°05'0 0.0
2018-Apr-17 19:28N 26°07' W 080°05'0 0.0
2018-Apr-17 18:49N 26°07' W 080°05'0 0.0
2018-Apr-17 18:22N 26°07' W 080°05'0 0.0
2018-Apr-17 17:52N 26°07' W 080°05'0 0.0
2018-Apr-17 17:28N 26°07' W 080°05'1 1.2
2018-Apr-17 17:00N 26°07' W 080°05'4 8.8
2018-Apr-17 16:30N 26°12' W 080°04'4 8.8
2018-Apr-17 16:00N 26°16' W 080°04'4 8.4
2018-Apr-17 15:30N 26°20' W 080°03'4 7.9
2018-Apr-17 15:00N 26°24' W 080°03'4 7.9
2018-Apr-17 14:30N 26°28' W 080°02'20 7.1
2018-Apr-17 11:37N 26°48' W 079°60'1 7.0
2018-Apr-17 11:27N 26°50' W 080°00'3 7.4
2018-Apr-17 11:00N 26°53' W 080°01'4 7.7
2018-Apr-17 10:30N 26°57' W 080°02'4 7.9
2018-Apr-17 10:00N 27°00' W 080°03'  

Dump ship's entire track history